Time;durP1;ratioP1;P1;durP2;ratioP2;P2;SDS_P1;SDS_P2;PMS_P1;PMS_P2;Temp;Humidity;BMP_temperature;BMP_pressure;BME280_temperature;BME280_humidity;BME280_pressure;Samples;Min_cycle;Max_cycle;Signal;HPM_P1;HPM_P2
2023/07/07 00:01:50;;;;;;;7.97;2.88;;;;;;;22.88;100.00;100123.81;4991248;28;20270;-77
2023/07/07 00:04:15;;;;;;;5.03;2.70;;;;;;;23.21;100.00;100186.28;5004170;28;20042;-77
2023/07/07 00:06:41;;;;;;;5.40;3.40;;;;;;;23.42;100.00;100211.84;4988799;28;21919;-76
2023/07/07 00:09:07;;;;;;;3.15;2.05;;;;;;;22.45;100.00;100062.00;5000034;28;20114;-76
2023/07/07 00:11:32;;;;;;;5.72;3.33;;;;;;;22.82;100.00;100120.59;5005073;28;20121;-77
2023/07/07 00:13:58;;;;;;;7.18;2.75;;;;;;;22.96;100.00;100134.06;4991325;28;20096;-77
2023/07/07 00:16:27;;;;;;;5.20;2.92;;;;;;;23.12;100.00;100159.06;5005874;28;20042;-77
2023/07/07 00:18:55;;;;;;;8.63;3.85;;;;;;;23.13;100.00;100181.34;5003104;28;20053;-77
2023/07/07 00:21:24;;;;;;;4.22;2.67;;;;;;;23.02;100.00;100168.56;5004247;28;20038;-76
2023/07/07 00:23:53;;;;;;;5.68;3.10;;;;;;;23.35;100.00;100199.75;5005712;28;20034;-77
2023/07/07 00:26:20;;;;;;;3.60;2.03;;;;;;;23.32;100.00;100194.56;4999680;28;20066;-78
2023/07/07 00:28:45;;;;;;;4.50;2.25;;;;;;;23.03;100.00;100135.50;5003909;28;20053;-77
2023/07/07 00:31:11;;;;;;;6.97;3.15;;;;;;;22.90;100.00;100119.25;5005571;28;20125;-77
2023/07/07 00:33:37;;;;;;;5.38;2.95;;;;;;;23.44;100.00;100207.28;5004656;28;20050;-77
2023/07/07 00:36:02;;;;;;;4.43;2.15;;;;;;;22.99;100.00;100122.38;5007372;28;20073;-78
2023/07/07 00:38:28;;;;;;;6.15;2.90;;;;;;;23.10;100.00;100136.88;5007081;28;20065;-78
2023/07/07 00:40:54;;;;;;;5.07;2.45;;;;;;;23.00;100.00;100135.66;5007599;28;20089;-78
2023/07/07 00:43:21;;;;;;;4.32;2.67;;;;;;;23.08;100.00;100149.47;5001570;28;20050;-77
2023/07/07 00:45:46;;;;;;;4.85;2.63;;;;;;;22.90;100.00;100129.09;4995762;28;20046;-77
2023/07/07 00:48:24;;;;;;;4.35;2.30;;;;;;;22.73;100.00;100088.09;5002993;28;20037;-78
2023/07/07 00:51:01;;;;;;;3.90;2.33;;;;;;;23.12;100.00;100134.13;5000918;28;20165;-79
2023/07/07 00:53:29;;;;;;;6.70;3.20;;;;;;;23.05;100.00;100136.28;4981991;28;20120;-78
2023/07/07 00:56:03;;;;;;;5.80;2.35;;;;;;;23.53;100.00;100203.19;5001308;28;20033;-77
2023/07/07 00:58:30;;;;;;;3.20;1.67;;;;;;;23.55;100.00;100226.28;4998358;28;20656;-78
2023/07/07 01:01:06;;;;;;;5.70;3.38;;;;;;;23.02;100.00;100131.09;4999495;28;20152;-78
2023/07/07 01:03:40;;;;;;;3.75;2.33;;;;;;;22.74;100.00;100119.22;5001754;28;20065;-77
2023/07/07 01:06:10;;;;;;;4.25;2.45;;;;;;;22.86;100.00;100133.72;5007155;28;20437;-78
2023/07/07 01:08:38;;;;;;;3.97;2.28;;;;;;;22.83;100.00;100116.97;5004395;28;20042;-77
2023/07/07 01:11:03;;;;;;;4.00;2.60;;;;;;;22.99;100.00;100130.41;5007860;28;20029;-77
2023/07/07 01:13:29;;;;;;;5.03;2.72;;;;;;;23.33;100.00;100190.94;5007543;28;20376;-77
2023/07/07 01:16:09;;;;;;;3.35;1.88;;;;;;;23.42;100.00;100225.22;5005811;28;20053;-77
2023/07/07 01:18:58;;;;;;;4.18;2.15;;;;;;;22.96;100.00;100134.94;5007195;28;20115;-77
2023/07/07 01:21:32;;;;;;;5.45;2.80;;;;;;;23.46;100.00;100216.09;5005917;28;20744;-77
2023/07/07 01:24:10;;;;;;;4.00;2.55;;;;;;;23.30;100.00;100221.44;4989221;28;20154;-77
2023/07/07 01:27:16;;;;;;;14.38;3.20;;;;;;;23.27;100.00;100207.34;5000066;28;20088;-77
2023/07/07 01:30:04;;;;;;;6.40;2.13;;;;;;;23.37;100.00;100220.13;4988393;28;20044;-77
2023/07/07 01:32:30;;;;;;;5.35;3.17;;;;;;;23.11;100.00;100194.81;5007093;28;20037;-77
2023/07/07 01:34:58;;;;;;;6.72;3.08;;;;;;;21.73;100.00;99955.41;4989297;28;20129;-77
2023/07/07 01:37:24;;;;;;;13.23;5.07;;;;;;;23.35;100.00;100226.53;5000484;28;20080;-77
2023/07/07 01:39:51;;;;;;;6.88;4.68;;;;;;;23.35;100.00;100226.53;5006614;28;20029;-77
2023/07/07 01:42:43;;;;;;;11.27;3.05;;;;;;;22.42;100.00;100139.69;5005557;28;20048;-77
2023/07/07 01:45:26;;;;;;;6.88;3.70;;;;;;;22.97;100.00;100237.50;4988778;28;20041;-76
2023/07/07 01:48:01;;;;;;;5.00;3.03;;;;;;;22.84;100.00;100220.38;5000699;28;20509;-77
2023/07/07 01:50:30;;;;;;;7.82;3.15;;;;;;;23.00;100.00;100234.69;5005051;28;20046;-77
2023/07/07 01:53:08;;;;;;;7.50;3.63;;;;;;;23.04;100.00;100225.56;5007091;28;20036;-77
2023/07/07 01:55:40;;;;;;;8.13;3.53;;;;;;;22.94;100.00;100251.03;5005717;28;20046;-77
2023/07/07 01:58:08;;;;;;;5.07;2.35;;;;;;;22.79;100.00;100230.47;5004887;28;20429;-79
2023/07/07 02:00:35;;;;;;;6.70;3.85;;;;;;;22.89;100.00;100242.41;5004976;28;20061;-77
2023/07/07 02:03:06;;;;;;;4.03;3.05;;;;;;;22.49;100.00;100177.66;5006430;28;20156;-77
2023/07/07 02:05:31;;;;;;;7.30;4.05;;;;;;;22.26;100.00;100110.22;5006428;28;20112;-77
2023/07/07 02:07:56;;;;;;;6.85;4.38;;;;;;;22.84;100.00;100234.63;4987612;28;20462;-77
2023/07/07 02:10:22;;;;;;;8.02;3.33;;;;;;;22.71;100.00;100226.41;5006083;28;20481;-79
2023/07/07 02:12:48;;;;;;;3.75;2.17;;;;;;;22.24;100.00;100148.69;5006682;28;20049;-79
2023/07/07 02:15:14;;;;;;;4.72;2.70;;;;;;;22.73;100.00;100247.69;5006654;28;20053;-77
2023/07/07 02:17:39;;;;;;;8.35;3.47;;;;;;;22.39;100.00;100174.63;5006362;28;20554;-77
2023/07/07 02:20:05;;;;;;;5.32;2.28;;;;;;;22.00;100.00;100154.31;5010933;28;20389;-77
2023/07/07 02:22:31;;;;;;;9.77;2.97;;;;;;;22.52;100.00;100239.88;5006973;28;20516;-77
2023/07/07 02:24:56;;;;;;;3.78;2.25;;;;;;;22.63;100.00;100251.81;5006388;28;20042;-79
2023/07/07 02:27:22;;;;;;;4.07;2.28;;;;;;;22.57;100.00;100233.41;4985427;28;20049;-79
2023/07/07 02:29:47;;;;;;;6.85;3.35;;;;;;;21.88;100.00;100142.47;5006542;28;20425;-79
2023/07/07 02:32:13;;;;;;;3.50;2.35;;;;;;;22.81;100.00;100258.03;5006257;28;20033;-79
2023/07/07 02:34:40;;;;;;;4.00;2.55;;;;;;;22.61;100.00;100235.84;5006636;28;20768;-78
2023/07/07 02:37:12;;;;;;;4.47;2.65;;;;;;;22.31;100.00;100192.84;5001954;28;20045;-78
2023/07/07 02:39:39;;;;;;;10.63;4.75;;;;;;;22.15;100.00;100198.13;5000226;28;20053;-78
2023/07/07 02:42:05;;;;;;;4.32;2.50;;;;;;;22.01;100.00;100161.41;5004513;28;20137;-78
2023/07/07 02:44:30;;;;;;;4.32;2.10;;;;;;;22.02;100.00;100184.50;4999055;28;20129;-77
2023/07/07 02:46:55;;;;;;;4.43;2.75;;;;;;;22.04;100.00;100181.78;5006966;28;20026;-77
2023/07/07 02:49:21;;;;;;;5.97;3.60;;;;;;;22.39;100.00;100246.81;4986517;28;20068;-77
2023/07/07 02:51:46;;;;;;;3.38;2.03;;;;;;;22.41;100.00;100241.41;5006491;28;20050;-76
2023/07/07 02:54:12;;;;;;;4.03;2.40;;;;;;;22.02;100.00;100173.81;5004819;28;20615;-78
2023/07/07 02:56:37;;;;;;;5.43;2.88;;;;;;;22.37;100.00;100216.59;5007618;28;20415;-77
2023/07/07 02:59:03;;;;;;;19.38;3.78;;;;;;;22.30;100.00;100202.69;5010193;28;20415;-78
2023/07/07 03:01:28;;;;;;;4.40;2.15;;;;;;;22.12;100.00;100185.78;4991030;28;20069;-77
2023/07/07 03:03:56;;;;;;;3.90;2.25;;;;;;;22.25;100.00;100188.72;5009780;28;20085;-77
2023/07/07 03:06:22;;;;;;;4.35;1.92;;;;;;;22.55;100.00;100261.13;5006741;28;20081;-77
2023/07/07 03:08:49;;;;;;;3.63;2.80;;;;;;;22.38;100.00;100238.84;5008653;28;20129;-77
2023/07/07 03:11:18;;;;;;;4.50;2.58;;;;;;;22.64;100.00;100269.59;5009543;28;20038;-77
2023/07/07 03:13:48;;;;;;;3.33;2.40;;;;;;;22.24;100.00;100184.31;5009805;28;20038;-77
2023/07/07 03:16:20;;;;;;;3.83;2.03;;;;;;;22.26;100.00;100181.53;5009168;28;20112;-77
2023/07/07 03:18:46;;;;;;;6.95;2.67;;;;;;;22.63;100.00;100243.78;5009410;28;20136;-76
2023/07/07 03:21:12;;;;;;;9.10;2.50;;;;;;;22.27;100.00;100181.47;5008885;28;20410;-77
2023/07/07 03:23:38;;;;;;;4.70;2.65;;;;;;;22.75;100.00;100276.09;5009496;28;20041;-77
2023/07/07 03:26:13;;;;;;;4.60;3.08;;;;;;;22.57;100.00;100242.31;5009585;28;20057;-78
2023/07/07 03:28:39;;;;;;;4.18;2.42;;;;;;;22.56;100.00;100216.50;5000410;28;20102;-77
2023/07/07 03:31:08;;;;;;;5.20;2.58;;;;;;;22.79;100.00;100284.84;4990333;28;20109;-78
2023/07/07 03:33:34;;;;;;;4.00;2.28;;;;;;;22.86;100.00;100278.22;5008985;28;20509;-78
2023/07/07 03:35:59;;;;;;;7.45;2.78;;;;;;;22.44;100.00;100187.75;4989009;28;20041;-78
2023/07/07 03:38:24;;;;;;;5.00;2.65;;;;;;;22.52;100.00;100201.56;5007366;28;20057;-78
2023/07/07 03:40:50;;;;;;;3.03;1.50;;;;;;;22.99;100.00;100281.13;5005175;28;20541;-78
2023/07/07 03:43:18;;;;;;;6.05;2.83;;;;;;;22.83;100.00;100250.75;5008657;28;20497;-77
2023/07/07 03:45:43;;;;;;;4.80;2.35;;;;;;;22.46;100.00;100201.91;5006574;28;20564;-78
2023/07/07 03:48:09;;;;;;;3.05;1.58;;;;;;;22.39;100.00;100184.47;5008265;28;20050;-77
2023/07/07 03:50:35;;;;;;;4.05;2.17;;;;;;;22.36;100.00;100204.19;5006251;28;20088;-79
2023/07/07 03:53:00;;;;;;;5.90;2.58;;;;;;;22.79;100.00;100246.53;5008916;28;20069;-77
2023/07/07 03:55:26;;;;;;;7.15;3.35;;;;;;;22.74;100.00;100214.66;5008424;28;20768;-78
2023/07/07 03:57:51;;;;;;;5.53;2.50;;;;;;;23.04;100.00;100263.03;5000336;28;20046;-78
2023/07/07 04:00:17;;;;;;;5.25;3.13;;;;;;;23.02;100.00;100254.22;5008362;28;20061;-79
2023/07/07 04:02:43;;;;;;;8.38;2.08;;;;;;;22.80;100.00;100206.28;5007736;28;20042;-78
2023/07/07 04:05:10;;;;;;;3.05;1.80;;;;;;;23.34;100.00;100299.75;5007521;28;20033;-79
2023/07/07 04:07:35;;;;;;;5.38;2.70;;;;;;;23.26;100.00;100285.94;5005690;28;20045;-78
2023/07/07 04:10:02;;;;;;;4.22;1.88;;;;;;;23.43;100.00;100290.38;5007765;28;20042;-78
2023/07/07 04:12:29;;;;;;;4.10;2.38;;;;;;;22.96;100.00;100239.31;4990756;28;20410;-77
2023/07/07 04:14:54;;;;;;;5.55;2.75;;;;;;;22.92;100.00;100199.41;5008617;28;20046;-77
2023/07/07 04:17:20;;;;;;;4.80;2.95;;;;;;;22.99;100.00;100200.84;5007037;28;20466;-78
2023/07/07 04:19:45;;;;;;;3.80;2.35;;;;;;;23.03;100.00;100201.53;4991038;28;20060;-78
2023/07/07 04:22:10;;;;;;;4.43;2.67;;;;;;;23.39;100.00;100284.34;5008600;28;20053;-79
2023/07/07 04:24:36;;;;;;;3.60;1.85;;;;;;;23.50;100.00;100278.34;5005534;28;20050;-79
2023/07/07 04:27:02;;;;;;;4.45;2.42;;;;;;;22.84;100.00;100175.75;5004824;28;20045;-78
2023/07/07 04:29:27;;;;;;;4.00;2.58;;;;;;;23.61;100.00;100289.34;5008104;28;20053;-78
2023/07/07 04:31:53;;;;;;;5.63;2.45;;;;;;;23.82;100.00;100295.34;4990570;28;20025;-78
2023/07/07 04:34:18;;;;;;;6.63;2.53;;;;;;;23.23;100.00;100193.28;5008090;28;20147;-79
2023/07/07 04:36:44;;;;;;;2.85;1.70;;;;;;;23.56;100.00;100241.38;5007095;28;20061;-77
2023/07/07 04:39:10;;;;;;;3.53;1.98;;;;;;;23.24;100.00;100178.94;5002682;28;20061;-77
2023/07/07 04:41:35;;;;;;;7.28;2.78;;;;;;;23.32;100.00;100206.16;5007707;28;20370;-78
2023/07/07 04:44:01;;;;;;;3.53;2.22;;;;;;;23.78;100.00;100272.34;5004397;28;20030;-78
2023/07/07 04:46:36;;;;;;;4.97;2.88;;;;;;;23.98;100.00;100298.00;5007623;28;20041;-78
2023/07/07 04:49:06;;;;;;;3.40;2.47;;;;;;;24.06;100.00;100300.25;5004959;28;20565;-78
2023/07/07 04:51:33;;;;;;;5.03;2.65;;;;;;;23.85;100.00;100280.91;5003268;28;20188;-78
2023/07/07 04:53:59;;;;;;;3.38;2.60;;;;;;;24.08;100.00;100295.66;4981388;28;20129;-78
2023/07/07 04:56:24;;;;;;;6.00;2.42;;;;;;;23.63;100.00;100200.88;5004250;28;20154;-78
2023/07/07 04:58:51;;;;;;;3.08;2.42;;;;;;;24.25;100.00;100289.28;5006519;28;20030;-78
2023/07/07 05:01:20;;;;;;;5.22;2.53;;;;;;;24.32;100.00;100291.50;4989725;28;20137;-78
2023/07/07 05:03:52;;;;;;;6.63;2.85;;;;;;;24.18;100.00;100296.84;5004035;28;20042;-79
2023/07/07 05:06:18;;;;;;;10.55;2.70;;;;;;;23.60;100.00;100177.78;5005253;28;20054;-78
2023/07/07 05:08:43;;;;;;;7.32;2.97;;;;;;;22.94;100.00;100039.63;5002208;28;20046;-78
2023/07/07 05:11:11;;;;;;;10.10;3.05;;;;;;;24.79;100.00;100289.66;5007177;28;20053;-78
2023/07/07 05:13:36;;;;;;;6.53;1.25;;;;;;;24.37;100.00;100267.09;5007541;28;20034;-79
2023/07/07 05:16:05;;;;;;;2.95;1.73;;;;;;;23.83;100.00;100176.47;4989272;28;20042;-78
2023/07/07 05:18:31;;;;;;;3.30;1.80;;;;;;;24.66;100.00;100304.78;5006546;28;20123;-77
2023/07/07 05:20:56;;;;;;;4.18;2.28;;;;;;;24.68;100.00;100201.75;5007074;28;20045;-78
2023/07/07 05:23:22;;;;;;;3.25;1.85;;;;;;;24.93;100.00;100194.84;5006535;28;20402;-78
2023/07/07 05:25:48;;;;;;;4.28;2.53;;;;;;;24.97;100.00;100205.28;5007291;28;20516;-78
2023/07/07 05:28:13;;;;;;;4.60;2.58;;;;;;;25.46;100.00;100300.72;5002846;28;20048;-77
2023/07/07 05:30:39;;;;;;;5.88;2.30;;;;;;;25.21;100.00;100272.72;5001641;28;20528;-77
2023/07/07 05:33:05;;;;;;;5.60;2.45;;;;;;;24.98;100.00;100239.25;5001275;28;20081;-78
2023/07/07 05:35:31;;;;;;;4.00;2.17;;;;;;;25.20;100.00;100294.31;4994400;28;20077;-77
2023/07/07 05:37:56;;;;;;;3.83;2.38;;;;;;;24.42;100.00;100231.03;5001967;28;20033;-77
2023/07/07 05:40:22;;;;;;;3.92;2.35;;;;;;;25.05;100.00;100322.94;5006172;28;20498;-77
2023/07/07 05:42:47;;;;;;;3.67;2.42;;;;;;;24.64;100.00;100245.84;4997589;28;20050;-74
2023/07/07 05:45:13;;;;;;;6.15;3.10;;;;;;;24.67;100.00;100274.31;4994225;28;20502;-75
2023/07/07 05:47:38;;;;;;;3.90;1.75;;;;;;;24.78;100.00;100245.84;4981837;28;20061;-75
2023/07/07 05:50:04;;;;;;;2.58;1.95;;;;;;;24.84;100.00;100325.13;5004811;28;20525;-73
2023/07/07 05:52:29;;;;;;;2.42;1.77;;;;;;;24.60;100.00;100255.03;5006298;28;20041;-72
2023/07/07 05:54:56;;;;;;;4.68;2.00;;;;;;;24.53;100.00;100218.78;5001789;28;20046;-73
2023/07/07 05:57:22;;;;;;;4.53;2.80;;;;;;;24.90;100.00;100273.75;5001873;28;20455;-73
2023/07/07 05:59:48;;;;;;;2.88;1.65;;;;;;;24.40;100.00;100240.13;5005635;28;20096;-73
2023/07/07 06:02:13;;;;;;;5.30;3.15;;;;;;;24.60;100.00;100241.59;5005220;28;20524;-73
2023/07/07 06:04:39;;;;;;;9.00;1.75;;;;;;;25.36;100.00;100233.28;5005794;28;20256;-72
2023/07/07 06:07:05;;;;;;;4.28;2.70;;;;;;;26.25;100.00;100334.16;5001948;28;20038;-72
2023/07/07 06:09:30;;;;;;;2.97;1.80;;;;;;;26.20;100.00;100263.63;5002569;28;20419;-72
2023/07/07 06:11:56;;;;;;;3.95;1.95;;;;;;;26.65;100.00;100242.66;5005575;28;20049;-72
2023/07/07 06:14:21;;;;;;;4.95;2.00;;;;;;;26.95;100.00;100256.66;5005627;28;20041;-73
2023/07/07 06:16:47;;;;;;;5.10;3.90;;;;;;;26.74;100.00;100247.41;4987998;28;20036;-73
2023/07/07 06:19:12;;;;;;;3.92;1.85;;;;;;;27.17;100.00;100317.06;5005424;28;20536;-72
2023/07/07 06:21:38;;;;;;;3.40;1.67;;;;;;;27.11;100.00;100325.56;5005247;28;20543;-73
2023/07/07 06:24:03;;;;;;;2.92;1.75;;;;;;;27.29;100.00;100238.09;4988579;28;20050;-73
2023/07/07 06:26:29;;;;;;;4.45;2.20;;;;;;;28.08;100.00;100257.44;5004056;28;20121;-73
2023/07/07 06:28:54;;;;;;;4.20;1.88;;;;;;;27.28;100.00;100313.66;4994148;28;20025;-72
2023/07/07 06:31:22;;;;;;;5.10;2.50;;;;;;;27.66;100.00;100248.00;5009311;28;20409;-73
2023/07/07 06:33:48;;;;;;;6.88;2.15;;;;;;;27.81;100.00;100270.28;5009523;28;20050;-73
2023/07/07 06:36:13;;;;;;;4.10;2.40;;;;;;;27.91;100.00;100327.97;5008951;28;20053;-72
2023/07/07 06:38:39;;;;;;;4.03;1.95;;;;;;;27.63;100.00;100251.81;5004268;28;20105;-73
2023/07/07 06:41:04;;;;;;;3.75;2.08;;;;;;;27.84;100.00;100280.84;5007628;28;20025;-72
2023/07/07 06:43:30;;;;;;;7.03;2.25;;;;;;;27.84;100.00;100280.84;5009611;28;20084;-73
2023/07/07 06:45:57;;;;;;;7.68;2.35;;;;;;;27.81;100.00;100324.19;5005031;28;20049;-72
2023/07/07 06:48:22;;;;;;;3.13;1.70;;;;;;;28.65;100.00;100344.91;5008693;28;20199;-72
2023/07/07 06:50:48;;;;;;;3.92;1.92;;;;;;;28.53;100.00;100335.91;5007574;28;20058;-72
2023/07/07 06:53:14;;;;;;;4.18;2.22;;;;;;;28.11;100.00;100303.06;4990606;28;20493;-72
2023/07/07 06:55:40;;;;;;;2.28;1.40;;;;;;;28.36;100.00;100331.78;5006858;28;20088;-74
2023/07/07 06:58:07;;;;;;;5.65;2.40;;;;;;;27.19;100.00;100260.41;4988798;28;20053;-73
2023/07/07 07:00:33;;;;;;;3.75;2.08;;;;;;;27.82;99.67;100304.38;5001235;28;20054;-73
2023/07/07 07:02:58;;;;;;;3.80;2.10;;;;;;;28.01;99.85;100250.78;4996324;28;20163;-73
2023/07/07 07:05:24;;;;;;;2.63;1.63;;;;;;;27.97;100.00;100260.94;5002353;28;20462;-72
2023/07/07 07:07:49;;;;;;;2.67;1.58;;;;;;;27.54;100.00;100315.34;5006917;28;20124;-73
2023/07/07 07:10:15;;;;;;;8.15;2.78;;;;;;;27.72;97.35;100337.41;5007637;28;20453;-73
2023/07/07 07:12:40;;;;;;;4.22;1.50;;;;;;;28.27;100.00;100323.50;5004122;28;20501;-73
2023/07/07 07:15:07;;;;;;;4.43;2.10;;;;;;;28.29;98.70;100337.75;5003473;28;20073;-73
2023/07/07 07:17:33;;;;;;;3.40;2.25;;;;;;;28.44;100.00;100261.00;5004699;28;20513;-73
2023/07/07 07:19:58;;;;;;;4.97;2.95;;;;;;;28.75;100.00;100318.94;5004581;28;20034;-72
2023/07/07 07:22:24;;;;;;;4.95;2.30;;;;;;;28.80;100.00;100286.16;5007861;28;20053;-72
2023/07/07 07:24:49;;;;;;;4.20;2.60;;;;;;;28.59;100.00;100327.34;5001147;28;20050;-74
2023/07/07 07:27:15;;;;;;;4.40;3.65;;;;;;;28.49;100.00;100285.81;4995602;28;20050;-73
2023/07/07 07:29:44;;;;;;;4.43;2.80;;;;;;;28.21;100.00;100289.75;4998758;28;20054;-73
2023/07/07 07:32:10;;;;;;;5.57;2.63;;;;;;;28.47;100.00;100328.31;5006615;28;20041;-73
2023/07/07 07:34:35;;;;;;;3.80;2.78;;;;;;;28.38;100.00;100318.16;4999071;28;20034;-72
2023/07/07 07:37:03;;;;;;;2.03;1.58;;;;;;;28.75;100.00;100332.44;5003326;28;20099;-72
2023/07/07 07:39:28;;;;;;;5.13;3.45;;;;;;;29.41;100.00;100329.09;4989736;28;20042;-73
2023/07/07 07:41:55;;;;;;;4.43;2.40;;;;;;;28.55;100.00;100276.41;5001226;28;20569;-73
2023/07/07 07:44:22;;;;;;;2.63;1.88;;;;;;;28.53;100.00;100306.22;5005216;28;20040;-74
2023/07/07 07:46:50;;;;;;;6.75;3.05;;;;;;;28.52;100.00;100317.16;5008185;28;20037;-74
2023/07/07 07:49:15;;;;;;;7.55;2.33;;;;;;;28.88;100.00;100307.16;5011287;28;20078;-72
2023/07/07 07:51:41;;;;;;;4.05;2.45;;;;;;;29.29;100.00;100259.78;5010013;28;20411;-73
2023/07/07 07:54:11;;;;;;;5.60;2.45;;;;;;;29.38;100.00;100254.50;5006706;28;20540;-73
2023/07/07 07:56:37;;;;;;;4.97;3.20;;;;;;;29.91;100.00;100315.16;4994982;28;20076;-72
2023/07/07 07:59:03;;;;;;;4.93;2.67;;;;;;;29.31;97.06;100249.72;5004457;28;20034;-74
2023/07/07 08:01:29;;;;;;;5.10;2.58;;;;;;;29.12;96.82;100256.59;5007463;28;20068;-73
2023/07/07 08:03:55;;;;;;;8.23;2.60;;;;;;;29.79;98.49;100336.84;5004503;28;20042;-73
2023/07/07 08:06:20;;;;;;;2.63;2.03;;;;;;;30.04;100.00;100323.97;4997304;28;20056;-73
2023/07/07 08:08:46;;;;;;;5.43;3.03;;;;;;;29.26;79.74;100274.41;5004040;28;20041;-77
2023/07/07 08:11:13;;;;;;;2.42;1.55;;;;;;;29.44;83.03;100328.84;4999633;28;20806;-74
2023/07/07 08:13:39;;;;;;;3.63;1.73;;;;;;;29.77;79.74;100282.00;4998442;28;20070;-74
2023/07/07 08:16:04;;;;;;;4.47;2.30;;;;;;;30.57;86.49;100331.31;5000743;28;20090;-73
2023/07/07 08:18:30;;;;;;;2.70;1.80;;;;;;;28.91;81.81;100205.09;5006387;28;20942;-73
2023/07/07 08:20:55;;;;;;;3.78;2.50;;;;;;;29.53;82.26;100267.75;5006478;28;20054;-74
2023/07/07 08:23:21;;;;;;;4.00;1.50;;;;;;;30.58;85.07;100311.34;5001109;28;20038;-74
2023/07/07 08:25:46;;;;;;;3.05;1.85;;;;;;;30.79;76.62;100347.44;5003213;28;20040;-74
2023/07/07 08:28:12;;;;;;;5.03;2.03;;;;;;;30.82;86.07;100328.22;4999503;28;20057;-74
2023/07/07 08:30:37;;;;;;;5.22;2.80;;;;;;;30.19;79.61;100259.59;5006632;28;20180;-75
2023/07/07 08:33:03;;;;;;;3.38;1.77;;;;;;;30.20;78.66;100335.22;4999613;28;20084;-75
2023/07/07 08:35:28;;;;;;;3.90;2.28;;;;;;;29.94;82.61;100352.78;5007110;28;20053;-74
2023/07/07 08:37:54;;;;;;;3.55;2.13;;;;;;;29.93;84.27;100287.00;5002327;28;20482;-75
2023/07/07 08:40:23;;;;;;;4.18;2.38;;;;;;;30.33;91.08;100304.47;5007933;28;20132;-74
2023/07/07 08:42:49;;;;;;;3.10;1.98;;;;;;;29.69;79.92;100226.81;5006959;28;20046;-74
2023/07/07 08:45:16;;;;;;;2.85;1.65;;;;;;;29.36;84.96;100271.81;5004668;28;20033;-76
2023/07/07 08:48:20;;;;;;;4.20;2.92;;;;;;;29.45;85.64;100290.00;5006996;28;20061;-75
2023/07/07 08:50:58;;;;;;;;;;;;;;;30.80;79.67;100342.88;4950114;28;20149;-74
2023/07/07 08:53:26;;;;;;;4.45;2.42;;;;;;;30.83;83.56;100340.75;5002039;28;19917;-76
2023/07/07 08:55:58;;;;;;;3.75;2.28;;;;;;;31.09;81.21;100337.66;5001319;28;20038;-77
2023/07/07 08:58:40;;;;;;;5.78;2.97;;;;;;;31.63;79.54;100332.94;5004259;28;20047;-76
2023/07/07 09:01:24;;;;;;;3.15;2.08;;;;;;;30.58;73.14;100298.69;5003051;28;20142;-75
2023/07/07 09:04:12;;;;;;;4.60;1.85;;;;;;;31.26;76.00;100328.91;4997716;28;20062;-83
2023/07/07 09:06:46;;;;;;;4.95;3.85;;;;;;;29.70;74.80;100347.53;4989469;28;20134;-82
2023/07/07 09:09:27;;;;;;;10.52;2.33;;;;;;;29.62;79.91;100264.31;4999942;28;20059;-86
2023/07/07 09:12:32;;;;;;;6.07;2.97;;;;;;;29.51;79.51;100327.38;5002520;28;20049;-77
2023/07/07 09:15:01;;;;;;;4.47;2.05;;;;;;;30.16;82.11;100319.41;4996245;28;20053;-81
2023/07/07 09:17:32;;;;;;;3.30;2.10;;;;;;;31.07;78.84;100239.34;4996726;28;20152;-79
2023/07/07 09:20:02;;;;;;;5.90;3.17;;;;;;;31.71;75.35;100262.56;4984030;28;20121;-79
2023/07/07 09:22:37;;;;;;;3.47;2.00;;;;;;;32.07;72.61;100236.63;4997332;28;20061;-79
2023/07/07 09:25:03;;;;;;;3.53;2.42;;;;;;;32.58;69.41;100253.59;4994201;28;20333;-79
2023/07/07 09:27:47;;;;;;;3.47;2.00;;;;;;;33.49;65.78;100323.75;4994214;28;20065;-80
2023/07/07 09:30:27;;;;;;;4.38;2.67;;;;;;;33.21;60.38;100256.56;4996669;28;20061;-79
2023/07/07 09:32:53;;;;;;;4.80;3.35;;;;;;;32.21;61.30;100280.63;4998569;28;20061;-79
2023/07/07 09:35:21;;;;;;;5.18;3.17;;;;;;;31.58;60.92;100279.09;4996105;28;20104;-81
2023/07/07 09:37:50;;;;;;;5.57;2.20;;;;;;;31.32;69.74;100309.38;4982472;28;20038;-78
2023/07/07 09:40:18;;;;;;;5.30;2.75;;;;;;;32.66;66.87;100302.63;4983348;28;20566;-78
2023/07/07 09:43:05;;;;;;;4.90;2.78;;;;;;;31.91;63.68;100307.75;5003620;28;20123;-78
2023/07/07 09:45:38;;;;;;;4.18;2.95;;;;;;;31.37;71.58;100298.13;4993724;28;20058;-81
2023/07/07 09:48:33;;;;;;;4.28;2.47;;;;;;;30.99;74.38;100305.09;4999827;28;20042;-81
2023/07/07 09:51:20;;;;;;;3.10;2.47;;;;;;;30.09;78.45;100282.03;4970125;28;20520;-80
2023/07/07 09:53:47;;;;;;;5.57;3.22;;;;;;;29.77;80.78;100270.31;4984889;28;20054;-78
2023/07/07 09:56:17;;;;;;;4.97;3.10;;;;;;;30.37;87.78;100277.00;5001988;28;20477;-78
2023/07/07 09:59:04;;;;;;;19.17;3.53;;;;;;;30.15;85.10;100215.66;4994384;28;20096;-78
2023/07/07 10:01:36;;;;;;;5.97;2.65;;;;;;;31.03;77.81;100218.97;4997251;28;20149;-79
2023/07/07 10:04:08;;;;;;;2.63;1.63;;;;;;;30.53;79.08;100213.38;4999608;28;20489;-79
2023/07/07 10:06:48;;;;;;;4.00;1.90;;;;;;;31.30;80.72;100292.41;5001317;28;20037;-80
2023/07/07 10:09:15;;;;;;;3.20;2.15;;;;;;;30.65;73.24;100247.56;4983226;28;20052;-79
2023/07/07 10:11:42;;;;;;;10.20;2.95;;;;;;;30.96;72.28;100289.09;4982110;28;20516;-78
2023/07/07 10:14:12;;;;;;;4.32;3.20;;;;;;;31.03;77.38;100252.34;5001752;28;20053;-79
2023/07/07 10:17:01;;;;;;;4.35;2.88;;;;;;;31.63;75.85;100284.97;4996384;28;20128;-79
2023/07/07 10:19:27;;;;;;;6.72;3.22;;;;;;;31.07;71.87;100163.44;4996367;28;20494;-80
2023/07/07 10:21:53;;;;;;;4.65;2.20;;;;;;;31.36;68.60;100263.03;4982753;28;20074;-80
2023/07/07 10:24:19;;;;;;;4.13;1.80;;;;;;;31.03;73.26;100243.34;4995522;28;20145;-81
2023/07/07 10:26:47;;;;;;;3.85;2.50;;;;;;;31.64;76.95;100275.84;4997138;28;20417;-81
2023/07/07 10:29:22;;;;;;;3.55;1.98;;;;;;;31.81;69.25;100274.28;4992412;28;20030;-81
2023/07/07 10:31:50;;;;;;;2.28;1.80;;;;;;;30.87;64.99;100195.91;4994740;28;20465;-80
2023/07/07 10:34:19;;;;;;;4.47;2.17;;;;;;;31.77;63.36;100270.13;4982939;28;20048;-80
2023/07/07 10:36:44;;;;;;;4.68;2.83;;;;;;;31.06;64.91;100251.19;4981439;28;20074;-80
2023/07/07 10:39:10;;;;;;;4.20;2.78;;;;;;;32.00;66.21;100240.91;4992499;28;20049;-81
2023/07/07 10:41:36;;;;;;;4.68;2.13;;;;;;;31.74;62.46;100224.28;4996071;28;20599;-80
2023/07/07 10:44:01;;;;;;;4.65;2.58;;;;;;;32.21;64.70;100234.47;4995748;28;20030;-81
2023/07/07 10:46:27;;;;;;;3.78;2.90;;;;;;;32.57;64.49;100233.75;4999567;28;20509;-81
2023/07/07 10:48:55;;;;;;;4.10;2.88;;;;;;;31.81;62.97;100157.59;5000649;28;20046;-80
2023/07/07 10:51:59;;;;;;;3.08;1.98;;;;;;;31.03;66.64;100176.44;4993696;28;20041;-81
2023/07/07 10:54:51;;;;;;;3.63;2.08;;;;;;;33.06;56.65;100233.63;4995079;28;20046;-78
2023/07/07 10:57:43;;;;;;;5.72;3.20;;;;;;;33.17;57.43;100230.66;4969591;28;20042;-78
2023/07/07 11:00:31;;;;;;;3.60;2.40;;;;;;;33.22;54.57;100220.22;4985643;28;20081;-79
2023/07/07 11:03:02;;;;;;;5.07;2.83;;;;;;;34.05;53.68;100228.25;4998831;28;20091;-79
2023/07/07 11:05:42;;;;;;;2.83;1.95;;;;;;;34.21;52.08;100211.22;4997910;28;20069;-77
2023/07/07 11:08:15;;;;;;;4.65;3.60;;;;;;;33.71;53.37;100219.91;4996659;28;20485;-78
2023/07/07 11:11:11;;;;;;;5.85;3.08;;;;;;;33.85;53.99;100194.88;4999994;28;20169;-79
2023/07/07 11:13:45;;;;;;;3.45;2.53;;;;;;;34.35;50.66;100217.09;4996048;28;20124;-78
2023/07/07 11:16:20;;;;;;;4.10;3.08;;;;;;;33.90;50.40;100199.00;5002052;28;20037;-80
2023/07/07 11:19:14;;;;;;;4.82;3.67;;;;;;;32.68;53.91;100161.19;5004079;28;20145;-82
2023/07/07 11:21:47;;;;;;;4.45;2.67;;;;;;;32.87;53.97;100212.75;4978149;28;20611;-81
2023/07/07 11:24:18;;;;;;;4.95;2.42;;;;;;;32.15;62.21;100184.31;5002635;28;20046;-83
2023/07/07 11:27:07;;;;;;;3.75;3.17;;;;;;;32.23;62.93;100202.59;5000561;28;20050;-82
2023/07/07 11:29:57;;;;;;;3.67;2.30;;;;;;;33.46;54.85;100193.44;4986355;28;20095;-82